sensor_id;sensor_type;location;lat;lon;timestamp;temperature;humidity
3418;DHT22;68007;51.312;12.372;2023-05-14T00:01:36;18.80;68.10
3418;DHT22;68007;51.312;12.372;2023-05-14T00:04:03;18.80;68.30
3418;DHT22;68007;51.312;12.372;2023-05-14T00:06:31;18.80;68.40
3418;DHT22;68007;51.312;12.372;2023-05-14T00:08:58;18.80;68.40
3418;DHT22;68007;51.312;12.372;2023-05-14T00:11:26;18.70;68.40
3418;DHT22;68007;51.312;12.372;2023-05-14T00:13:53;18.70;68.50
3418;DHT22;68007;51.312;12.372;2023-05-14T00:16:21;18.70;68.40
3418;DHT22;68007;51.312;12.372;2023-05-14T00:18:50;18.70;68.60
3418;DHT22;68007;51.312;12.372;2023-05-14T00:21:17;18.70;68.60
3418;DHT22;68007;51.312;12.372;2023-05-14T00:23:45;18.60;68.60
3418;DHT22;68007;51.312;12.372;2023-05-14T00:26:12;18.60;68.60
3418;DHT22;68007;51.312;12.372;2023-05-14T00:28:40;18.60;68.70
3418;DHT22;68007;51.312;12.372;2023-05-14T00:31:07;18.60;68.80
3418;DHT22;68007;51.312;12.372;2023-05-14T00:33:35;18.60;68.80
3418;DHT22;68007;51.312;12.372;2023-05-14T00:36:04;18.60;69.00
3418;DHT22;68007;51.312;12.372;2023-05-14T00:38:32;18.60;69.00
3418;DHT22;68007;51.312;12.372;2023-05-14T00:40:59;18.50;68.90
3418;DHT22;68007;51.312;12.372;2023-05-14T00:43:27;18.50;69.00
3418;DHT22;68007;51.312;12.372;2023-05-14T00:45:54;18.50;68.90
3418;DHT22;68007;51.312;12.372;2023-05-14T00:48:22;18.50;68.90
3418;DHT22;68007;51.312;12.372;2023-05-14T00:50:50;18.50;69.50
3418;DHT22;68007;51.312;12.372;2023-05-14T00:53:19;18.50;68.90
3418;DHT22;68007;51.312;12.372;2023-05-14T00:55:48;18.40;69.10
3418;DHT22;68007;51.312;12.372;2023-05-14T00:58:17;18.50;69.70
3418;DHT22;68007;51.312;12.372;2023-05-14T01:00:45;18.40;69.10
3418;DHT22;68007;51.312;12.372;2023-05-14T01:03:12;18.40;69.70
3418;DHT22;68007;51.312;12.372;2023-05-14T01:05:45;18.40;69.20
3418;DHT22;68007;51.312;12.372;2023-05-14T01:08:24;18.30;69.10
3418;DHT22;68007;51.312;12.372;2023-05-14T01:10:59;18.30;69.20
3418;DHT22;68007;51.312;12.372;2023-05-14T01:13:36;18.30;69.10
3418;DHT22;68007;51.312;12.372;2023-05-14T01:16:05;18.30;69.00
3418;DHT22;68007;51.312;12.372;2023-05-14T01:18:39;18.30;69.10
3418;DHT22;68007;51.312;12.372;2023-05-14T01:21:23;18.30;69.10
3418;DHT22;68007;51.312;12.372;2023-05-14T01:23:51;18.20;69.00
3418;DHT22;68007;51.312;12.372;2023-05-14T01:26:18;18.20;69.30
3418;DHT22;68007;51.312;12.372;2023-05-14T01:28:48;18.20;69.30
3418;DHT22;68007;51.312;12.372;2023-05-14T01:31:17;18.20;69.20
3418;DHT22;68007;51.312;12.372;2023-05-14T01:33:51;18.20;69.20
3418;DHT22;68007;51.312;12.372;2023-05-14T01:36:18;18.20;69.20
3418;DHT22;68007;51.312;12.372;2023-05-14T01:38:48;18.20;69.30
3418;DHT22;68007;51.312;12.372;2023-05-14T01:41:17;18.20;69.40
3418;DHT22;68007;51.312;12.372;2023-05-14T01:43:46;18.10;69.30
3418;DHT22;68007;51.312;12.372;2023-05-14T01:46:17;18.10;69.10
3418;DHT22;68007;51.312;12.372;2023-05-14T01:48:44;18.10;69.20
3418;DHT22;68007;51.312;12.372;2023-05-14T01:51:12;18.10;69.00
3418;DHT22;68007;51.312;12.372;2023-05-14T01:53:40;18.10;69.10
3418;DHT22;68007;51.312;12.372;2023-05-14T01:56:09;18.10;69.10
3418;DHT22;68007;51.312;12.372;2023-05-14T01:58:36;18.00;68.90
3418;DHT22;68007;51.312;12.372;2023-05-14T02:01:04;18.00;69.50
3418;DHT22;68007;51.312;12.372;2023-05-14T02:03:31;18.00;68.90
3418;DHT22;68007;51.312;12.372;2023-05-14T02:05:59;18.00;69.00
3418;DHT22;68007;51.312;12.372;2023-05-14T02:08:26;18.00;68.90
3418;DHT22;68007;51.312;12.372;2023-05-14T02:10:54;17.90;69.00
3418;DHT22;68007;51.312;12.372;2023-05-14T02:13:24;17.90;69.00
3418;DHT22;68007;51.312;12.372;2023-05-14T02:15:52;17.90;69.00
3418;DHT22;68007;51.312;12.372;2023-05-14T02:18:19;17.90;69.10
3418;DHT22;68007;51.312;12.372;2023-05-14T02:20:47;17.90;69.70
3418;DHT22;68007;51.312;12.372;2023-05-14T02:23:14;17.90;69.10
3418;DHT22;68007;51.312;12.372;2023-05-14T02:25:43;17.90;69.20
3418;DHT22;68007;51.312;12.372;2023-05-14T02:28:10;17.80;69.10
3418;DHT22;68007;51.312;12.372;2023-05-14T02:30:39;17.80;69.20
3418;DHT22;68007;51.312;12.372;2023-05-14T02:33:06;17.80;69.10
3418;DHT22;68007;51.312;12.372;2023-05-14T02:35:34;17.80;69.10
3418;DHT22;68007;51.312;12.372;2023-05-14T02:38:02;17.80;69.10
3418;DHT22;68007;51.312;12.372;2023-05-14T02:40:31;17.80;69.10
3418;DHT22;68007;51.312;12.372;2023-05-14T02:42:58;17.80;69.20
3418;DHT22;68007;51.312;12.372;2023-05-14T02:45:26;17.80;69.40
3418;DHT22;68007;51.312;12.372;2023-05-14T02:47:54;17.70;69.30
3418;DHT22;68007;51.312;12.372;2023-05-14T02:50:22;17.70;69.30
3418;DHT22;68007;51.312;12.372;2023-05-14T02:52:49;17.70;69.40
3418;DHT22;68007;51.312;12.372;2023-05-14T02:55:17;17.70;69.50
3418;DHT22;68007;51.312;12.372;2023-05-14T02:57:45;17.70;69.50
3418;DHT22;68007;51.312;12.372;2023-05-14T03:00:13;17.70;69.60
3418;DHT22;68007;51.312;12.372;2023-05-14T03:02:40;17.60;69.70
3418;DHT22;68007;51.312;12.372;2023-05-14T03:05:09;17.70;69.80
3418;DHT22;68007;51.312;12.372;2023-05-14T03:07:37;17.60;69.90
3418;DHT22;68007;51.312;12.372;2023-05-14T03:10:05;17.60;69.90
3418;DHT22;68007;51.312;12.372;2023-05-14T03:12:33;17.60;70.10
3418;DHT22;68007;51.312;12.372;2023-05-14T03:15:00;17.60;70.10
3418;DHT22;68007;51.312;12.372;2023-05-14T03:17:28;17.60;70.10
3418;DHT22;68007;51.312;12.372;2023-05-14T03:19:55;17.60;69.90
3418;DHT22;68007;51.312;12.372;2023-05-14T03:22:25;17.50;70.00
3418;DHT22;68007;51.312;12.372;2023-05-14T03:24:52;17.50;70.20
3418;DHT22;68007;51.312;12.372;2023-05-14T03:27:20;17.50;70.20
3418;DHT22;68007;51.312;12.372;2023-05-14T03:29:47;17.50;70.30
3418;DHT22;68007;51.312;12.372;2023-05-14T03:32:15;17.50;70.40
3418;DHT22;68007;51.312;12.372;2023-05-14T03:34:43;17.50;70.40
3418;DHT22;68007;51.312;12.372;2023-05-14T03:37:11;17.50;70.30
3418;DHT22;68007;51.312;12.372;2023-05-14T03:39:40;17.50;70.30
3418;DHT22;68007;51.312;12.372;2023-05-14T03:42:07;17.40;70.30
3418;DHT22;68007;51.312;12.372;2023-05-14T03:44:35;17.40;71.10
3418;DHT22;68007;51.312;12.372;2023-05-14T03:47:02;17.40;70.50
3418;DHT22;68007;51.312;12.372;2023-05-14T03:49:30;17.40;70.60
3418;DHT22;68007;51.312;12.372;2023-05-14T03:51:58;17.40;70.80
3418;DHT22;68007;51.312;12.372;2023-05-14T03:54:25;17.40;70.80
3418;DHT22;68007;51.312;12.372;2023-05-14T03:56:54;17.40;70.80
3418;DHT22;68007;51.312;12.372;2023-05-14T03:59:21;17.40;71.00
3418;DHT22;68007;51.312;12.372;2023-05-14T04:01:49;17.40;70.90
3418;DHT22;68007;51.312;12.372;2023-05-14T04:04:17;17.30;71.00
3418;DHT22;68007;51.312;12.372;2023-05-14T04:06:44;17.30;71.10
3418;DHT22;68007;51.312;12.372;2023-05-14T04:09:12;17.40;71.10
3418;DHT22;68007;51.312;12.372;2023-05-14T04:11:39;17.30;71.10
3418;DHT22;68007;51.312;12.372;2023-05-14T04:14:08;17.30;71.10
3418;DHT22;68007;51.312;12.372;2023-05-14T04:16:35;17.30;71.10
3418;DHT22;68007;51.312;12.372;2023-05-14T04:19:03;17.30;71.20
3418;DHT22;68007;51.312;12.372;2023-05-14T04:21:31;17.20;71.10
3418;DHT22;68007;51.312;12.372;2023-05-14T04:23:58;17.30;71.20
3418;DHT22;68007;51.312;12.372;2023-05-14T04:26:26;17.20;71.10
3418;DHT22;68007;51.312;12.372;2023-05-14T04:28:53;17.20;71.40
3418;DHT22;68007;51.312;12.372;2023-05-14T04:31:22;17.30;71.70
3418;DHT22;68007;51.312;12.372;2023-05-14T04:33:50;17.20;71.80
3418;DHT22;68007;51.312;12.372;2023-05-14T04:36:17;17.20;71.80
3418;DHT22;68007;51.312;12.372;2023-05-14T04:38:45;17.20;71.80
3418;DHT22;68007;51.312;12.372;2023-05-14T04:41:12;17.20;72.00
3418;DHT22;68007;51.312;12.372;2023-05-14T04:43:40;17.20;72.10
3418;DHT22;68007;51.312;12.372;2023-05-14T04:46:07;17.20;72.10
3418;DHT22;68007;51.312;12.372;2023-05-14T04:48:36;17.20;72.20
3418;DHT22;68007;51.312;12.372;2023-05-14T04:51:04;17.10;72.30
3418;DHT22;68007;51.312;12.372;2023-05-14T04:53:31;17.20;72.20
3418;DHT22;68007;51.312;12.372;2023-05-14T04:55:59;17.10;72.30
3418;DHT22;68007;51.312;12.372;2023-05-14T04:58:26;17.10;72.20
3418;DHT22;68007;51.312;12.372;2023-05-14T05:00:56;17.10;72.20
3418;DHT22;68007;51.312;12.372;2023-05-14T05:03:24;17.10;72.40
3418;DHT22;68007;51.312;12.372;2023-05-14T05:05:52;17.10;72.70
3418;DHT22;68007;51.312;12.372;2023-05-14T05:08:20;17.00;72.80
3418;DHT22;68007;51.312;12.372;2023-05-14T05:10:47;17.00;72.90
3418;DHT22;68007;51.312;12.372;2023-05-14T05:13:15;17.00;73.00
3418;DHT22;68007;51.312;12.372;2023-05-14T05:15:43;17.10;72.90
3418;DHT22;68007;51.312;12.372;2023-05-14T05:18:11;17.00;73.00
3418;DHT22;68007;51.312;12.372;2023-05-14T05:20:38;17.00;73.20
3418;DHT22;68007;51.312;12.372;2023-05-14T05:23:07;17.10;73.20
3418;DHT22;68007;51.312;12.372;2023-05-14T05:25:35;17.00;73.30
3418;DHT22;68007;51.312;12.372;2023-05-14T05:28:02;17.00;73.30
3418;DHT22;68007;51.312;12.372;2023-05-14T05:30:30;17.10;73.40
3418;DHT22;68007;51.312;12.372;2023-05-14T05:32:57;17.00;73.50
3418;DHT22;68007;51.312;12.372;2023-05-14T05:35:25;17.00;73.30
3418;DHT22;68007;51.312;12.372;2023-05-14T05:37:52;17.00;74.00
3418;DHT22;68007;51.312;12.372;2023-05-14T05:40:21;17.10;73.60
3418;DHT22;68007;51.312;12.372;2023-05-14T05:42:49;17.00;73.70
3418;DHT22;68007;51.312;12.372;2023-05-14T05:45:16;17.10;73.80
3418;DHT22;68007;51.312;12.372;2023-05-14T05:47:44;17.10;73.80
3418;DHT22;68007;51.312;12.372;2023-05-14T05:50:11;17.00;74.00
3418;DHT22;68007;51.312;12.372;2023-05-14T05:52:40;17.00;73.70
3418;DHT22;68007;51.312;12.372;2023-05-14T05:55:08;17.00;73.70
3418;DHT22;68007;51.312;12.372;2023-05-14T05:57:37;17.00;73.40
3418;DHT22;68007;51.312;12.372;2023-05-14T06:00:06;17.00;73.60
3418;DHT22;68007;51.312;12.372;2023-05-14T06:02:38;17.00;73.60
3418;DHT22;68007;51.312;12.372;2023-05-14T06:05:07;17.10;73.70
3418;DHT22;68007;51.312;12.372;2023-05-14T06:07:35;17.00;73.40
3418;DHT22;68007;51.312;12.372;2023-05-14T06:10:02;17.00;73.40
3418;DHT22;68007;51.312;12.372;2023-05-14T06:12:31;17.00;73.30
3418;DHT22;68007;51.312;12.372;2023-05-14T06:15:00;17.00;73.30
3418;DHT22;68007;51.312;12.372;2023-05-14T06:17:27;17.10;73.30
3418;DHT22;68007;51.312;12.372;2023-05-14T06:19:55;17.00;73.30
3418;DHT22;68007;51.312;12.372;2023-05-14T06:22:22;17.10;73.40
3418;DHT22;68007;51.312;12.372;2023-05-14T06:24:50;17.10;73.40
3418;DHT22;68007;51.312;12.372;2023-05-14T06:27:17;17.10;73.20
3418;DHT22;68007;51.312;12.372;2023-05-14T06:29:45;17.10;73.00
3418;DHT22;68007;51.312;12.372;2023-05-14T06:32:14;17.10;72.70
3418;DHT22;68007;51.312;12.372;2023-05-14T06:34:42;17.10;72.80
3418;DHT22;68007;51.312;12.372;2023-05-14T06:37:10;17.10;72.50
3418;DHT22;68007;51.312;12.372;2023-05-14T06:39:39;17.10;73.00
3418;DHT22;68007;51.312;12.372;2023-05-14T06:42:09;17.10;72.80
3418;DHT22;68007;51.312;12.372;2023-05-14T06:44:36;17.10;72.70
3418;DHT22;68007;51.312;12.372;2023-05-14T06:47:04;17.10;72.60
3418;DHT22;68007;51.312;12.372;2023-05-14T06:49:35;17.10;72.70
3418;DHT22;68007;51.312;12.372;2023-05-14T06:52:03;17.10;72.30
3418;DHT22;68007;51.312;12.372;2023-05-14T06:54:31;17.10;71.90
3418;DHT22;68007;51.312;12.372;2023-05-14T06:56:59;17.10;72.10
3418;DHT22;68007;51.312;12.372;2023-05-14T06:59:26;17.20;71.70
3418;DHT22;68007;51.312;12.372;2023-05-14T07:01:54;17.20;71.90
3418;DHT22;68007;51.312;12.372;2023-05-14T07:04:21;17.20;72.20
3418;DHT22;68007;51.312;12.372;2023-05-14T07:06:50;17.20;72.10
3418;DHT22;68007;51.312;12.372;2023-05-14T07:09:18;17.20;72.60
3418;DHT22;68007;51.312;12.372;2023-05-14T07:11:46;17.20;72.30
3418;DHT22;68007;51.312;12.372;2023-05-14T07:14:13;17.20;72.40
3418;DHT22;68007;51.312;12.372;2023-05-14T07:16:41;17.10;73.00
3418;DHT22;68007;51.312;12.372;2023-05-14T07:19:08;17.20;72.70
3418;DHT22;68007;51.312;12.372;2023-05-14T07:21:36;17.20;72.80
3418;DHT22;68007;51.312;12.372;2023-05-14T07:24:05;17.20;72.30
3418;DHT22;68007;51.312;12.372;2023-05-14T07:26:33;17.20;72.60
3418;DHT22;68007;51.312;12.372;2023-05-14T07:29:00;17.20;72.60
3418;DHT22;68007;51.312;12.372;2023-05-14T07:31:28;17.20;72.50
3418;DHT22;68007;51.312;12.372;2023-05-14T07:33:55;17.20;72.10
3418;DHT22;68007;51.312;12.372;2023-05-14T07:36:23;17.30;72.00
3418;DHT22;68007;51.312;12.372;2023-05-14T07:38:50;17.20;72.20
3418;DHT22;68007;51.312;12.372;2023-05-14T07:41:19;17.20;72.30
3418;DHT22;68007;51.312;12.372;2023-05-14T07:43:47;17.30;72.60
3418;DHT22;68007;51.312;12.372;2023-05-14T07:46:14;17.30;72.20
3418;DHT22;68007;51.312;12.372;2023-05-14T07:48:42;17.20;72.10
3418;DHT22;68007;51.312;12.372;2023-05-14T07:51:09;17.30;71.80
3418;DHT22;68007;51.312;12.372;2023-05-14T07:53:37;17.30;72.00
3418;DHT22;68007;51.312;12.372;2023-05-14T07:56:05;17.40;72.10
3418;DHT22;68007;51.312;12.372;2023-05-14T07:58:34;17.40;71.90
3418;DHT22;68007;51.312;12.372;2023-05-14T08:01:01;17.40;71.90
3418;DHT22;68007;51.312;12.372;2023-05-14T08:03:32;17.40;71.90
3418;DHT22;68007;51.312;12.372;2023-05-14T08:05:59;17.40;72.30
3418;DHT22;68007;51.312;12.372;2023-05-14T08:08:27;17.50;72.00
3418;DHT22;68007;51.312;12.372;2023-05-14T08:10:54;17.50;71.20
3418;DHT22;68007;51.312;12.372;2023-05-14T08:13:22;17.50;70.80
3418;DHT22;68007;51.312;12.372;2023-05-14T08:15:51;17.50;70.60
3418;DHT22;68007;51.312;12.372;2023-05-14T08:18:18;17.50;70.50
3418;DHT22;68007;51.312;12.372;2023-05-14T08:20:46;17.50;70.70
3418;DHT22;68007;51.312;12.372;2023-05-14T08:23:13;17.60;70.70
3418;DHT22;68007;51.312;12.372;2023-05-14T08:25:41;17.50;70.70
3418;DHT22;68007;51.312;12.372;2023-05-14T08:28:08;17.60;70.60
3418;DHT22;68007;51.312;12.372;2023-05-14T08:30:36;17.60;70.60
3418;DHT22;68007;51.312;12.372;2023-05-14T08:33:05;17.60;70.50
3418;DHT22;68007;51.312;12.372;2023-05-14T08:35:32;17.60;70.40
3418;DHT22;68007;51.312;12.372;2023-05-14T08:38:00;17.60;70.40
3418;DHT22;68007;51.312;12.372;2023-05-14T08:40:27;17.70;70.40
3418;DHT22;68007;51.312;12.372;2023-05-14T08:42:56;17.70;70.60
3418;DHT22;68007;51.312;12.372;2023-05-14T08:45:28;17.70;71.00
3418;DHT22;68007;51.312;12.372;2023-05-14T08:47:57;17.70;70.90
3418;DHT22;68007;51.312;12.372;2023-05-14T08:50:27;17.80;71.20
3418;DHT22;68007;51.312;12.372;2023-05-14T08:52:56;17.80;70.80
3418;DHT22;68007;51.312;12.372;2023-05-14T08:55:23;17.80;71.00
3418;DHT22;68007;51.312;12.372;2023-05-14T08:57:52;17.80;71.10
3418;DHT22;68007;51.312;12.372;2023-05-14T09:00:21;17.80;71.00
3418;DHT22;68007;51.312;12.372;2023-05-14T09:02:48;17.90;71.70
3418;DHT22;68007;51.312;12.372;2023-05-14T09:05:18;17.90;71.00
3418;DHT22;68007;51.312;12.372;2023-05-14T09:07:47;17.90;70.80
3418;DHT22;68007;51.312;12.372;2023-05-14T09:10:15;17.90;70.60
3418;DHT22;68007;51.312;12.372;2023-05-14T09:12:43;17.90;70.50
3418;DHT22;68007;51.312;12.372;2023-05-14T09:15:11;18.00;70.50
3418;DHT22;68007;51.312;12.372;2023-05-14T09:17:39;18.10;70.40
3418;DHT22;68007;51.312;12.372;2023-05-14T09:20:08;18.10;70.50
3418;DHT22;68007;51.312;12.372;2023-05-14T09:22:37;18.10;70.50
3418;DHT22;68007;51.312;12.372;2023-05-14T09:25:08;18.10;70.60
3418;DHT22;68007;51.312;12.372;2023-05-14T09:27:37;18.10;70.70
3418;DHT22;68007;51.312;12.372;2023-05-14T09:30:08;18.20;70.70
3418;DHT22;68007;51.312;12.372;2023-05-14T09:32:37;18.20;70.70
3418;DHT22;68007;51.312;12.372;2023-05-14T09:35:12;18.20;70.80
3418;DHT22;68007;51.312;12.372;2023-05-14T09:37:43;18.20;70.60
3418;DHT22;68007;51.312;12.372;2023-05-14T09:40:13;18.30;70.90
3418;DHT22;68007;51.312;12.372;2023-05-14T09:42:41;18.30;70.80
3418;DHT22;68007;51.312;12.372;2023-05-14T09:45:09;18.40;70.70
3418;DHT22;68007;51.312;12.372;2023-05-14T09:47:37;18.40;70.40
3418;DHT22;68007;51.312;12.372;2023-05-14T09:50:06;18.40;70.20
3418;DHT22;68007;51.312;12.372;2023-05-14T09:52:34;18.40;69.90
3418;DHT22;68007;51.312;12.372;2023-05-14T09:55:02;18.50;69.40
3418;DHT22;68007;51.312;12.372;2023-05-14T09:57:31;18.50;69.60
3418;DHT22;68007;51.312;12.372;2023-05-14T09:59:59;18.50;69.10
3418;DHT22;68007;51.312;12.372;2023-05-14T10:02:32;18.50;69.10
3418;DHT22;68007;51.312;12.372;2023-05-14T10:05:04;18.50;69.20
3418;DHT22;68007;51.312;12.372;2023-05-14T10:07:37;18.50;69.50
3418;DHT22;68007;51.312;12.372;2023-05-14T10:10:09;18.60;69.20
3418;DHT22;68007;51.312;12.372;2023-05-14T10:12:39;18.60;69.50
3418;DHT22;68007;51.312;12.372;2023-05-14T10:15:15;18.70;69.60
3418;DHT22;68007;51.312;12.372;2023-05-14T10:17:48;18.70;69.70
3418;DHT22;68007;51.312;12.372;2023-05-14T10:20:15;18.70;68.40
3418;DHT22;68007;51.312;12.372;2023-05-14T10:22:44;18.60;68.60
3418;DHT22;68007;51.312;12.372;2023-05-14T10:25:11;18.70;68.60
3418;DHT22;68007;51.312;12.372;2023-05-14T10:27:41;18.70;68.20
3418;DHT22;68007;51.312;12.372;2023-05-14T10:30:12;18.70;69.00
3418;DHT22;68007;51.312;12.372;2023-05-14T10:32:39;18.80;68.70
3418;DHT22;68007;51.312;12.372;2023-05-14T10:35:16;18.80;68.70
3418;DHT22;68007;51.312;12.372;2023-05-14T10:37:44;18.90;68.30
3418;DHT22;68007;51.312;12.372;2023-05-14T10:40:13;18.90;68.00
3418;DHT22;68007;51.312;12.372;2023-05-14T10:42:42;19.00;67.20
3418;DHT22;68007;51.312;12.372;2023-05-14T10:45:12;19.00;67.70
3418;DHT22;68007;51.312;12.372;2023-05-14T10:47:42;19.00;67.70
3418;DHT22;68007;51.312;12.372;2023-05-14T10:50:11;19.00;68.50
3418;DHT22;68007;51.312;12.372;2023-05-14T10:52:40;19.10;68.20
3418;DHT22;68007;51.312;12.372;2023-05-14T10:55:11;19.20;67.20
3418;DHT22;68007;51.312;12.372;2023-05-14T10:57:42;19.20;66.90
3418;DHT22;68007;51.312;12.372;2023-05-14T11:00:12;19.20;67.20
3418;DHT22;68007;51.312;12.372;2023-05-14T11:02:40;19.20;66.70
3418;DHT22;68007;51.312;12.372;2023-05-14T11:05:09;19.20;66.60
3418;DHT22;68007;51.312;12.372;2023-05-14T11:07:41;19.20;66.90
3418;DHT22;68007;51.312;12.372;2023-05-14T11:10:11;19.20;66.80
3418;DHT22;68007;51.312;12.372;2023-05-14T11:12:40;19.30;66.30
3418;DHT22;68007;51.312;12.372;2023-05-14T11:15:10;19.30;66.50
3418;DHT22;68007;51.312;12.372;2023-05-14T11:17:39;19.30;67.00
3418;DHT22;68007;51.312;12.372;2023-05-14T11:20:08;19.40;68.00
3418;DHT22;68007;51.312;12.372;2023-05-14T11:22:37;19.40;67.50
3418;DHT22;68007;51.312;12.372;2023-05-14T11:25:07;19.40;67.20
3418;DHT22;68007;51.312;12.372;2023-05-14T11:27:36;19.50;67.60
3418;DHT22;68007;51.312;12.372;2023-05-14T11:30:14;19.50;66.90
3418;DHT22;68007;51.312;12.372;2023-05-14T11:32:43;19.60;66.70
3418;DHT22;68007;51.312;12.372;2023-05-14T11:35:11;19.60;66.60
3418;DHT22;68007;51.312;12.372;2023-05-14T11:37:39;19.60;67.10
3418;DHT22;68007;51.312;12.372;2023-05-14T11:40:08;19.60;67.40
3418;DHT22;68007;51.312;12.372;2023-05-14T11:42:40;19.60;67.20
3418;DHT22;68007;51.312;12.372;2023-05-14T11:45:11;19.60;67.50
3418;DHT22;68007;51.312;12.372;2023-05-14T11:47:40;19.60;67.60
3418;DHT22;68007;51.312;12.372;2023-05-14T11:50:08;19.70;67.90
3418;DHT22;68007;51.312;12.372;2023-05-14T11:52:37;19.70;67.80
3418;DHT22;68007;51.312;12.372;2023-05-14T11:55:09;19.70;67.40
3418;DHT22;68007;51.312;12.372;2023-05-14T11:57:37;19.70;67.40
3418;DHT22;68007;51.312;12.372;2023-05-14T12:00:07;19.80;67.40
3418;DHT22;68007;51.312;12.372;2023-05-14T12:02:39;19.80;67.50
3418;DHT22;68007;51.312;12.372;2023-05-14T12:05:11;19.80;67.30
3418;DHT22;68007;51.312;12.372;2023-05-14T12:07:39;19.80;67.50
3418;DHT22;68007;51.312;12.372;2023-05-14T12:10:07;19.80;67.20
3418;DHT22;68007;51.312;12.372;2023-05-14T12:12:35;19.80;66.80
3418;DHT22;68007;51.312;12.372;2023-05-14T12:15:09;19.80;66.20
3418;DHT22;68007;51.312;12.372;2023-05-14T12:17:38;19.80;66.10
3418;DHT22;68007;51.312;12.372;2023-05-14T12:20:10;19.80;65.60
3418;DHT22;68007;51.312;12.372;2023-05-14T12:22:38;19.80;65.50
3418;DHT22;68007;51.312;12.372;2023-05-14T12:25:10;19.80;64.50
3418;DHT22;68007;51.312;12.372;2023-05-14T12:27:39;19.80;65.10
3418;DHT22;68007;51.312;12.372;2023-05-14T12:30:07;19.80;65.30
3418;DHT22;68007;51.312;12.372;2023-05-14T12:32:37;19.80;65.10
3418;DHT22;68007;51.312;12.372;2023-05-14T12:35:07;19.80;64.90
3418;DHT22;68007;51.312;12.372;2023-05-14T12:37:35;19.80;65.20
3418;DHT22;68007;51.312;12.372;2023-05-14T12:40:06;19.80;65.20
3418;DHT22;68007;51.312;12.372;2023-05-14T12:42:34;19.80;65.20
3418;DHT22;68007;51.312;12.372;2023-05-14T12:45:02;19.80;65.50
3418;DHT22;68007;51.312;12.372;2023-05-14T12:47:32;19.90;65.60
3418;DHT22;68007;51.312;12.372;2023-05-14T12:49:59;19.90;65.60
3418;DHT22;68007;51.312;12.372;2023-05-14T12:52:28;19.90;65.40
3418;DHT22;68007;51.312;12.372;2023-05-14T12:54:56;19.90;65.90
3418;DHT22;68007;51.312;12.372;2023-05-14T12:57:25;19.90;66.10
3418;DHT22;68007;51.312;12.372;2023-05-14T12:59:54;19.90;65.80
3418;DHT22;68007;51.312;12.372;2023-05-14T13:02:21;20.00;66.10
3418;DHT22;68007;51.312;12.372;2023-05-14T13:04:49;20.00;66.20
3418;DHT22;68007;51.312;12.372;2023-05-14T13:07:16;20.00;66.40
3418;DHT22;68007;51.312;12.372;2023-05-14T13:09:45;20.10;66.50
3418;DHT22;68007;51.312;12.372;2023-05-14T13:12:13;20.10;66.50
3418;DHT22;68007;51.312;12.372;2023-05-14T13:14:40;20.10;65.90
3418;DHT22;68007;51.312;12.372;2023-05-14T13:17:08;20.10;66.40
3418;DHT22;68007;51.312;12.372;2023-05-14T13:19:35;20.10;66.30
3418;DHT22;68007;51.312;12.372;2023-05-14T13:22:03;20.10;66.30
3418;DHT22;68007;51.312;12.372;2023-05-14T13:24:31;20.10;66.50
3418;DHT22;68007;51.312;12.372;2023-05-14T13:26:59;20.10;66.50
3418;DHT22;68007;51.312;12.372;2023-05-14T13:29:27;20.10;66.30
3418;DHT22;68007;51.312;12.372;2023-05-14T13:31:56;20.20;66.30
3418;DHT22;68007;51.312;12.372;2023-05-14T13:34:24;20.10;66.00
3418;DHT22;68007;51.312;12.372;2023-05-14T13:36:51;20.10;66.10
3418;DHT22;68007;51.312;12.372;2023-05-14T13:39:19;20.20;66.30
3418;DHT22;68007;51.312;12.372;2023-05-14T13:41:47;20.20;65.90
3418;DHT22;68007;51.312;12.372;2023-05-14T13:44:17;20.20;66.10
3418;DHT22;68007;51.312;12.372;2023-05-14T13:46:44;20.20;65.80
3418;DHT22;68007;51.312;12.372;2023-05-14T13:49:12;20.20;65.80
3418;DHT22;68007;51.312;12.372;2023-05-14T13:51:39;20.20;66.10
3418;DHT22;68007;51.312;12.372;2023-05-14T13:54:07;20.20;65.40
3418;DHT22;68007;51.312;12.372;2023-05-14T13:56:34;20.30;65.70
3418;DHT22;68007;51.312;12.372;2023-05-14T13:59:02;20.20;65.20
3418;DHT22;68007;51.312;12.372;2023-05-14T14:01:31;20.20;65.20
3418;DHT22;68007;51.312;12.372;2023-05-14T14:03:58;20.20;65.00
3418;DHT22;68007;51.312;12.372;2023-05-14T14:06:26;20.20;65.20
3418;DHT22;68007;51.312;12.372;2023-05-14T14:08:53;20.30;65.30
3418;DHT22;68007;51.312;12.372;2023-05-14T14:11:21;20.30;65.30
3418;DHT22;68007;51.312;12.372;2023-05-14T14:13:49;20.30;65.20
3418;DHT22;68007;51.312;12.372;2023-05-14T14:16:16;20.30;64.80
3418;DHT22;68007;51.312;12.372;2023-05-14T14:18:45;20.30;65.40
3418;DHT22;68007;51.312;12.372;2023-05-14T14:21:13;20.30;65.60
3418;DHT22;68007;51.312;12.372;2023-05-14T14:23:43;20.30;65.60
3418;DHT22;68007;51.312;12.372;2023-05-14T14:26:11;20.30;65.40
3418;DHT22;68007;51.312;12.372;2023-05-14T14:28:39;20.40;65.40
3418;DHT22;68007;51.312;12.372;2023-05-14T14:31:06;20.40;65.00
3418;DHT22;68007;51.312;12.372;2023-05-14T14:33:34;20.40;64.90
3418;DHT22;68007;51.312;12.372;2023-05-14T14:36:04;20.40;65.00
3418;DHT22;68007;51.312;12.372;2023-05-14T14:38:31;20.40;64.50
3418;DHT22;68007;51.312;12.372;2023-05-14T14:40:59;20.40;64.90
3418;DHT22;68007;51.312;12.372;2023-05-14T14:43:28;20.40;63.30
3418;DHT22;68007;51.312;12.372;2023-05-14T14:45:55;20.40;64.30
3418;DHT22;68007;51.312;12.372;2023-05-14T14:48:25;20.50;64.20
3418;DHT22;68007;51.312;12.372;2023-05-14T14:50:53;20.50;64.30
3418;DHT22;68007;51.312;12.372;2023-05-14T14:53:23;20.50;64.00
3418;DHT22;68007;51.312;12.372;2023-05-14T14:55:51;20.50;63.20
3418;DHT22;68007;51.312;12.372;2023-05-14T14:58:19;20.50;63.90
3418;DHT22;68007;51.312;12.372;2023-05-14T15:00:46;20.50;64.10
3418;DHT22;68007;51.312;12.372;2023-05-14T15:03:16;20.50;64.50
3418;DHT22;68007;51.312;12.372;2023-05-14T15:05:44;20.50;64.40
3418;DHT22;68007;51.312;12.372;2023-05-14T15:08:12;20.50;64.40
3418;DHT22;68007;51.312;12.372;2023-05-14T15:10:41;20.50;64.00
3418;DHT22;68007;51.312;12.372;2023-05-14T15:13:11;20.50;64.70
3418;DHT22;68007;51.312;12.372;2023-05-14T15:15:39;20.50;64.50
3418;DHT22;68007;51.312;12.372;2023-05-14T15:18:06;20.50;64.80
3418;DHT22;68007;51.312;12.372;2023-05-14T15:20:34;20.50;64.90
3418;DHT22;68007;51.312;12.372;2023-05-14T15:23:01;20.50;64.90
3418;DHT22;68007;51.312;12.372;2023-05-14T15:25:29;20.50;65.00
3418;DHT22;68007;51.312;12.372;2023-05-14T15:27:58;20.50;65.00
3418;DHT22;68007;51.312;12.372;2023-05-14T15:30:25;20.50;65.00
3418;DHT22;68007;51.312;12.372;2023-05-14T15:32:53;20.60;64.70
3418;DHT22;68007;51.312;12.372;2023-05-14T15:35:21;20.60;65.10
3418;DHT22;68007;51.312;12.372;2023-05-14T15:37:49;20.60;65.20